PWSweather.com
Personal Weather Stations
Station Observations
WAREHAM1
West Wareham, MA 02576

West Wareham, MA 02576

Lat: 41.7961059, Lon: -70.775612

Elevation: 88

Station Type: Davis Vantage Vue

http://www.gateway2capecod.com

High Low Average
Temperature 63.5°F17.5°F 34.3°F1.3°F 50.2°F10.1°F
Dew Point 45.5°F7.5°F 33.1°F0.6°F 39.6°F4.2°F
Winds 4.9 mph SE7.9 mph SE Calm Calm 1.1 mph 1.8 mph
Wind Gusts 13.0 mph20.9 mph -- 3.9 mph6.3 mph
Humidity 97% 44% 70%
Pressure 30.48 in1032.20 in 30.29 in1025.70 in -
Precipitation 0.00 in0.00 in - -
Hour Temp Dew Point Humidity Winds Wind Gusts Pressure Precip Precip Rate Daily Precip Total
12:07 AM 38.5°F3.6°C 36.3°F2.4°C 92% Calm Calm -- 30.48 in1032.2 mb 0.00 in0.0 mm 0.00 in0.0 mm 0.00 in0.0 mm
12:17 AM 38.7°F3.7°C 36.5°F2.5°C 92% Calm Calm 1.0 mph1.6 kmh 30.48 in1032.2 mb 0.00 in0.0 mm 0.00 in0.0 mm 0.00 in0.0 mm
12:27 AM 38.7°F3.7°C 36.5°F2.5°C 92% Calm Calm 1.0 mph1.6 kmh 30.48 in1032.2 mb 0.00 in0.0 mm 0.00 in0.0 mm 0.00 in0.0 mm
12:37 AM 38.8°F3.8°C 36.7°F2.6°C 92% Calm Calm 1.0 mph1.6 kmh 30.48 in1032.2 mb 0.00 in0.0 mm 0.00 in0.0 mm 0.00 in0.0 mm
12:47 AM 38.7°F3.7°C 36.5°F2.5°C 92% Calm Calm 1.0 mph1.6 kmh 30.48 in1032.2 mb 0.00 in0.0 mm 0.00 in0.0 mm 0.00 in0.0 mm
12:57 AM 38.5°F3.6°C 36.3°F2.4°C 92% Calm Calm -- 30.47 in1031.8 mb 0.00 in0.0 mm 0.00 in0.0 mm 0.00 in0.0 mm
01:07 AM 38.3°F3.5°C 36.5°F2.5°C 93% Calm Calm -- 30.47 in1031.8 mb 0.00 in0.0 mm 0.00 in0.0 mm 0.00 in0.0 mm
01:17 AM 38.3°F3.5°C 36.5°F2.5°C 93% Calm Calm -- 30.46 in1031.5 mb 0.00 in0.0 mm 0.00 in0.0 mm 0.00 in0.0 mm
01:27 AM 37.8°F3.2°C 36.0°F2.2°C 93% Calm Calm -- 30.46 in1031.5 mb 0.00 in0.0 mm 0.00 in0.0 mm 0.00 in0.0 mm
01:37 AM 37.8°F3.2°C 36.0°F2.2°C 93% Calm Calm -- 30.46 in1031.5 mb 0.00 in0.0 mm 0.00 in0.0 mm 0.00 in0.0 mm
01:47 AM 37.2°F2.9°C 35.4°F1.9°C 93% Calm Calm -- 30.46 in1031.5 mb 0.00 in0.0 mm 0.00 in0.0 mm 0.00 in0.0 mm
01:57 AM 37.0°F2.8°C 35.4°F1.9°C 94% Calm Calm -- 30.45 in1031.2 mb 0.00 in0.0 mm 0.00 in0.0 mm 0.00 in0.0 mm
02:07 AM 36.5°F2.5°C 34.9°F1.6°C 94% Calm Calm -- 30.45 in1031.2 mb 0.00 in0.0 mm 0.00 in0.0 mm 0.00 in0.0 mm
02:17 AM 36.1°F2.3°C 34.5°F1.4°C 94% Calm Calm -- 30.45 in1031.2 mb 0.00 in0.0 mm 0.00 in0.0 mm 0.00 in0.0 mm
02:27 AM 36.3°F2.4°C 34.7°F1.5°C 94% Calm Calm -- 30.45 in1031.2 mb 0.00 in0.0 mm 0.00 in0.0 mm 0.00 in0.0 mm
02:37 AM 36.3°F2.4°C 35.1°F1.7°C 95% Calm Calm -- 30.45 in1031.2 mb 0.00 in0.0 mm 0.00 in0.0 mm 0.00 in0.0 mm
02:47 AM 36.9°F2.7°C 35.6°F2.0°C 95% Calm Calm -- 30.45 in1031.2 mb 0.00 in0.0 mm 0.00 in0.0 mm 0.00 in0.0 mm
02:57 AM 37.2°F2.9°C 36.0°F2.2°C 95% Calm Calm 1.0 mph1.6 kmh 30.45 in1031.2 mb 0.00 in0.0 mm 0.00 in0.0 mm 0.00 in0.0 mm
03:07 AM 37.2°F2.9°C 36.0°F2.2°C 95% Calm Calm 1.0 mph1.6 kmh 30.45 in1031.2 mb 0.00 in0.0 mm 0.00 in0.0 mm 0.00 in0.0 mm
03:17 AM 36.9°F2.7°C 35.2°F1.8°C 94% Calm Calm -- 30.45 in1031.2 mb 0.00 in0.0 mm 0.00 in0.0 mm 0.00 in0.0 mm
03:27 AM 36.5°F2.5°C 34.9°F1.6°C 94% Calm Calm -- 30.45 in1031.2 mb 0.00 in0.0 mm 0.00 in0.0 mm 0.00 in0.0 mm
03:37 AM 36.3°F2.4°C 34.7°F1.5°C 94% Calm Calm -- 30.45 in1031.2 mb 0.00 in0.0 mm 0.00 in0.0 mm 0.00 in0.0 mm
03:47 AM 36.0°F2.2°C 34.3°F1.3°C 94% Calm Calm -- 30.45 in1031.2 mb 0.00 in0.0 mm 0.00 in0.0 mm 0.00 in0.0 mm
03:57 AM 36.1°F2.3°C 34.9°F1.6°C 95% Calm Calm -- 30.45 in1031.2 mb 0.00 in0.0 mm 0.00 in0.0 mm 0.00 in0.0 mm
04:07 AM 36.3°F2.4°C 35.1°F1.7°C 95% Calm Calm -- 30.45 in1031.2 mb 0.00 in0.0 mm 0.00 in0.0 mm 0.00 in0.0 mm
04:17 AM 36.3°F2.4°C 35.1°F1.7°C 95% Calm Calm -- 30.45 in1031.2 mb 0.00 in0.0 mm 0.00 in0.0 mm 0.00 in0.0 mm
04:27 AM 36.3°F2.4°C 35.1°F1.7°C 95% Calm Calm -- 30.44 in1030.8 mb 0.00 in0.0 mm 0.00 in0.0 mm 0.00 in0.0 mm
04:37 AM 35.8°F2.1°C 34.2°F1.2°C 94% Calm Calm -- 30.44 in1030.8 mb 0.00 in0.0 mm 0.00 in0.0 mm 0.00 in0.0 mm
04:47 AM 35.2°F1.8°C 33.6°F0.9°C 94% Calm Calm -- 30.45 in1031.2 mb 0.00 in0.0 mm 0.00 in0.0 mm 0.00 in0.0 mm
04:57 AM 35.1°F1.7°C 33.8°F1.0°C 95% Calm Calm -- 30.44 in1030.8 mb 0.00 in0.0 mm 0.00 in0.0 mm 0.00 in0.0 mm
05:07 AM 35.1°F1.7°C 33.8°F1.0°C 95% Calm Calm -- 30.44 in1030.8 mb 0.00 in0.0 mm 0.00 in0.0 mm 0.00 in0.0 mm
05:17 AM 34.9°F1.6°C 33.6°F0.9°C 95% Calm Calm -- 30.44 in1030.8 mb 0.00 in0.0 mm 0.00 in0.0 mm 0.00 in0.0 mm
05:27 AM 34.7°F1.5°C 33.4°F0.8°C 95% Calm Calm -- 30.44 in1030.8 mb 0.00 in0.0 mm 0.00 in0.0 mm 0.00 in0.0 mm
05:37 AM 34.5°F1.4°C 33.3°F0.7°C 95% Calm Calm -- 30.44 in1030.8 mb 0.00 in0.0 mm 0.00 in0.0 mm 0.00 in0.0 mm
05:47 AM 34.3°F1.3°C 33.1°F0.6°C 95% Calm Calm -- 30.44 in1030.8 mb 0.00 in0.0 mm 0.00 in0.0 mm 0.00 in0.0 mm
05:57 AM 34.5°F1.4°C 33.3°F0.7°C 95% Calm Calm -- 30.44 in1030.8 mb 0.00 in0.0 mm 0.00 in0.0 mm 0.00 in0.0 mm
06:07 AM 34.3°F1.3°C 33.1°F0.6°C 95% Calm Calm -- 30.44 in1030.8 mb 0.00 in0.0 mm 0.00 in0.0 mm 0.00 in0.0 mm
06:17 AM 34.3°F1.3°C 33.1°F0.6°C 95% Calm Calm -- 30.45 in1031.2 mb 0.00 in0.0 mm 0.00 in0.0 mm 0.00 in0.0 mm
06:27 AM 35.1°F1.7°C 34.0°F1.1°C 96% Calm Calm -- 30.45 in1031.2 mb 0.00 in0.0 mm 0.00 in0.0 mm 0.00 in0.0 mm
06:37 AM 36.1°F2.3°C 35.1°F1.7°C 96% Calm Calm -- 30.45 in1031.2 mb 0.00 in0.0 mm 0.00 in0.0 mm 0.00 in0.0 mm
06:47 AM 37.0°F2.8°C 36.3°F2.4°C 97% Calm Calm -- 30.45 in1031.2 mb 0.00 in0.0 mm 0.00 in0.0 mm 0.00 in0.0 mm
06:57 AM 38.1°F3.4°C 37.4°F3.0°C 97% Calm Calm 1.0 mph1.6 kmh 30.45 in1031.2 mb 0.00 in0.0 mm 0.00 in0.0 mm 0.00 in0.0 mm
07:07 AM 39.0°F3.9°C 38.3°F3.5°C 97% Calm Calm 1.0 mph1.6 kmh 30.45 in1031.2 mb 0.00 in0.0 mm 0.00 in0.0 mm 0.00 in0.0 mm
07:17 AM 40.3°F4.6°C 39.6°F4.2°C 97% Calm Calm 1.0 mph1.6 kmh 30.45 in1031.2 mb 0.00 in0.0 mm 0.00 in0.0 mm 0.00 in0.0 mm
07:27 AM 41.4°F5.2°C 40.6°F4.8°C 97% Calm Calm 0.9 mph1.4 kmh 30.45 in1031.2 mb 0.00 in0.0 mm 0.00 in0.0 mm 0.00 in0.0 mm
07:37 AM 42.6°F5.9°C 41.5°F5.3°C 96% Calm Calm 0.9 mph1.4 kmh 30.45 in1031.2 mb 0.00 in0.0 mm 0.00 in0.0 mm 0.00 in0.0 mm
07:47 AM 43.9°F6.6°C 42.3°F5.7°C 94% Calm Calm 2.0 mph3.2 kmh 30.45 in1031.2 mb 0.00 in0.0 mm 0.00 in0.0 mm 0.00 in0.0 mm
07:57 AM 45.3°F7.4°C 42.8°F6.0°C 91% Calm Calm 2.0 mph3.2 kmh 30.45 in1031.2 mb 0.00 in0.0 mm 0.00 in0.0 mm 0.00 in0.0 mm
08:07 AM 46.6°F8.1°C 43.0°F6.1°C 87% Calm Calm 4.0 mph6.4 kmh 30.45 in1031.2 mb 0.00 in0.0 mm 0.00 in0.0 mm 0.00 in0.0 mm
08:17 AM 48.0°F8.9°C 43.3°F6.3°C 84% Calm Calm 2.9 mph4.7 kmh 30.46 in1031.5 mb 0.00 in0.0 mm 0.00 in0.0 mm 0.00 in0.0 mm
08:27 AM 49.5°F9.7°C 43.2°F6.2°C 79% 0.9 mph SSW1.4 kmh SSW 4.9 mph7.9 kmh 30.46 in1031.5 mb 0.00 in0.0 mm 0.00 in0.0 mm 0.00 in0.0 mm
08:37 AM 50.7°F10.4°C 43.7°F6.5°C 77% 0.9 mph SW1.4 kmh SW 4.0 mph6.4 kmh 30.46 in1031.5 mb 0.00 in0.0 mm 0.00 in0.0 mm 0.00 in0.0 mm
08:47 AM 52.2°F11.2°C 43.7°F6.5°C 73% 0.9 mph SW1.4 kmh SW 4.0 mph6.4 kmh 30.45 in1031.2 mb 0.00 in0.0 mm 0.00 in0.0 mm 0.00 in0.0 mm
08:57 AM 53.6°F12.0°C 43.7°F6.5°C 69% 0.9 mph SW1.4 kmh SW 4.0 mph6.4 kmh 30.46 in1031.5 mb 0.00 in0.0 mm 0.00 in0.0 mm 0.00 in0.0 mm
09:07 AM 54.5°F12.5°C 43.0°F6.1°C 65% 2.0 mph SW3.2 kmh SW 7.0 mph11.3 kmh 30.45 in1031.2 mb 0.00 in0.0 mm 0.00 in0.0 mm 0.00 in0.0 mm
09:17 AM 55.0°F12.8°C 41.9°F5.5°C 61% 2.0 mph SW3.2 kmh SW 5.0 mph8.0 kmh 30.46 in1031.5 mb 0.00 in0.0 mm 0.00 in0.0 mm 0.00 in0.0 mm
09:27 AM 56.1°F13.4°C 42.4°F5.8°C 60% 0.9 mph SW1.4 kmh SW 4.9 mph7.9 kmh 30.45 in1031.2 mb 0.00 in0.0 mm 0.00 in0.0 mm 0.00 in0.0 mm
09:37 AM 57.6°F14.2°C 41.0°F5.0°C 54% 0.9 mph SW1.4 kmh SW 2.9 mph4.7 kmh 30.44 in1030.8 mb 0.00 in0.0 mm 0.00 in0.0 mm 0.00 in0.0 mm
09:47 AM 58.6°F14.8°C 41.0°F5.0°C 52% 0.9 mph SW1.4 kmh SW 4.0 mph6.4 kmh 30.44 in1030.8 mb 0.00 in0.0 mm 0.00 in0.0 mm 0.00 in0.0 mm
09:57 AM 59.5°F15.3°C 41.4°F5.2°C 51% 0.9 mph SSW1.4 kmh SSW 5.0 mph8.0 kmh 30.45 in1031.2 mb 0.00 in0.0 mm 0.00 in0.0 mm 0.00 in0.0 mm
10:07 AM 59.9°F15.5°C 40.6°F4.8°C 49% 2.0 mph W3.2 kmh W 8.1 mph13.0 kmh 30.45 in1031.2 mb 0.00 in0.0 mm 0.00 in0.0 mm 0.00 in0.0 mm
10:17 AM 60.4°F15.8°C 40.6°F4.8°C 48% 2.0 mph SW3.2 kmh SW 6.0 mph9.7 kmh 30.45 in1031.2 mb 0.00 in0.0 mm 0.00 in0.0 mm 0.00 in0.0 mm
10:27 AM 60.4°F15.8°C 40.6°F4.8°C 48% 2.0 mph SW3.2 kmh SW 6.0 mph9.7 kmh 30.44 in1030.8 mb 0.00 in0.0 mm 0.00 in0.0 mm 0.00 in0.0 mm
10:37 AM 60.4°F15.8°C 41.7°F5.4°C 50% 2.0 mph S3.2 kmh S 8.1 mph13.0 kmh 30.44 in1030.8 mb 0.00 in0.0 mm 0.00 in0.0 mm 0.00 in0.0 mm
10:47 AM 61.9°F16.6°C 41.9°F5.5°C 48% 0.9 mph SW1.4 kmh SW 8.1 mph13.0 kmh 30.44 in1030.8 mb 0.00 in0.0 mm 0.00 in0.0 mm 0.00 in0.0 mm
10:57 AM 61.9°F16.6°C 41.9°F5.5°C 48% 2.0 mph S3.2 kmh S 7.0 mph11.3 kmh 30.44 in1030.8 mb 0.00 in0.0 mm 0.00 in0.0 mm 0.00 in0.0 mm
11:07 AM 61.9°F16.6°C 43.0°F6.1°C 50% 2.0 mph WSW3.2 kmh WSW 8.1 mph13.0 kmh 30.43 in1030.5 mb 0.00 in0.0 mm 0.00 in0.0 mm 0.00 in0.0 mm
11:17 AM 61.9°F16.6°C 43.0°F6.1°C 50% 2.0 mph S3.2 kmh S 6.9 mph11.1 kmh 30.43 in1030.5 mb 0.00 in0.0 mm 0.00 in0.0 mm 0.00 in0.0 mm
11:27 AM 62.1°F16.7°C 44.8°F7.1°C 53% 2.0 mph WSW3.2 kmh WSW 6.9 mph11.1 kmh 30.42 in1030.1 mb 0.00 in0.0 mm 0.00 in0.0 mm 0.00 in0.0 mm
11:37 AM 62.2°F16.8°C 43.3°F6.3°C 50% 2.0 mph SSW3.2 kmh SSW 8.9 mph14.3 kmh 30.42 in1030.1 mb 0.00 in0.0 mm 0.00 in0.0 mm 0.00 in0.0 mm
11:47 AM 62.2°F16.8°C 43.3°F6.3°C 50% 2.0 mph S3.2 kmh S 8.1 mph13.0 kmh 30.42 in1030.1 mb 0.00 in0.0 mm 0.00 in0.0 mm 0.00 in0.0 mm
11:57 AM 63.0°F17.2°C 44.1°F6.7°C 50% 2.0 mph SW3.2 kmh SW 6.9 mph11.1 kmh 30.41 in1029.8 mb 0.00 in0.0 mm 0.00 in0.0 mm 0.00 in0.0 mm
12:08 PM 63.1°F17.3°C 43.7°F6.5°C 49% 2.9 mph SW4.7 kmh SW 10.0 mph16.1 kmh 30.41 in1029.8 mb 0.00 in0.0 mm 0.00 in0.0 mm 0.00 in0.0 mm
12:18 PM 62.8°F17.1°C 42.8°F6.0°C 48% 2.9 mph WSW4.7 kmh WSW 10.0 mph16.1 kmh 30.40 in1029.5 mb 0.00 in0.0 mm 0.00 in0.0 mm 0.00 in0.0 mm
12:28 PM 63.0°F17.2°C 43.5°F6.4°C 49% 2.0 mph SSW3.2 kmh SSW 8.0 mph12.9 kmh 30.40 in1029.5 mb 0.00 in0.0 mm 0.00 in0.0 mm 0.00 in0.0 mm
12:38 PM 62.8°F17.1°C 44.4°F6.9°C 51% 2.9 mph SSW4.7 kmh SSW 8.9 mph14.3 kmh 30.40 in1029.5 mb 0.00 in0.0 mm 0.00 in0.0 mm 0.00 in0.0 mm
12:48 PM 63.5°F17.5°C 45.5°F7.5°C 52% 2.9 mph SSW4.7 kmh SSW 10.1 mph16.3 kmh 30.40 in1029.5 mb 0.00 in0.0 mm 0.00 in0.0 mm 0.00 in0.0 mm
12:58 PM 63.0°F17.2°C 45.5°F7.5°C 53% 2.9 mph SW4.7 kmh SW 8.9 mph14.3 kmh 30.39 in1029.1 mb 0.00 in0.0 mm 0.00 in0.0 mm 0.00 in0.0 mm
01:08 PM 63.3°F17.4°C 44.4°F6.9°C 50% 2.0 mph SE3.2 kmh SE 9.0 mph14.5 kmh 30.39 in1029.1 mb 0.00 in0.0 mm 0.00 in0.0 mm 0.00 in0.0 mm
01:18 PM 62.6°F17.0°C 44.8°F7.1°C 52% 4.0 mph WSW6.4 kmh WSW 8.9 mph14.3 kmh 30.39 in1029.1 mb 0.00 in0.0 mm 0.00 in0.0 mm 0.00 in0.0 mm
01:28 PM 62.8°F17.1°C 43.9°F6.6°C 50% 2.9 mph SW4.7 kmh SW 8.1 mph13.0 kmh 30.39 in1029.1 mb 0.00 in0.0 mm 0.00 in0.0 mm 0.00 in0.0 mm
01:38 PM 62.8°F17.1°C 43.9°F6.6°C 50% 2.9 mph SW4.7 kmh SW 9.0 mph14.5 kmh 30.39 in1029.1 mb 0.00 in0.0 mm 0.00 in0.0 mm 0.00 in0.0 mm
01:48 PM 62.1°F16.7°C 42.6°F5.9°C 49% 4.0 mph SW6.4 kmh SW 13.0 mph20.9 kmh 30.39 in1029.1 mb 0.00 in0.0 mm 0.00 in0.0 mm 0.00 in0.0 mm
01:58 PM 62.2°F16.8°C 42.3°F5.7°C 48% 2.9 mph WSW4.7 kmh WSW 8.9 mph14.3 kmh 30.39 in1029.1 mb 0.00 in0.0 mm 0.00 in0.0 mm 0.00 in0.0 mm
02:08 PM 63.0°F17.2°C 42.4°F5.8°C 47% 2.9 mph SSW4.7 kmh SSW 8.0 mph12.9 kmh 30.38 in1028.8 mb 0.00 in0.0 mm 0.00 in0.0 mm 0.00 in0.0 mm
02:18 PM 62.2°F16.8°C 40.1°F4.5°C 44% 2.9 mph SW4.7 kmh SW 8.9 mph14.3 kmh 30.38 in1028.8 mb 0.00 in0.0 mm 0.00 in0.0 mm 0.00 in0.0 mm
02:28 PM 61.0°F16.1°C 40.6°F4.8°C 47% 4.9 mph SE7.9 kmh SE 10.1 mph16.3 kmh 30.38 in1028.8 mb 0.00 in0.0 mm 0.00 in0.0 mm 0.00 in0.0 mm
02:38 PM 61.3°F16.3°C 41.0°F5.0°C 47% 4.0 mph SSW6.4 kmh SSW 10.0 mph16.1 kmh 30.37 in1028.4 mb 0.00 in0.0 mm 0.00 in0.0 mm 0.00 in0.0 mm
02:48 PM 62.2°F16.8°C 42.3°F5.7°C 48% 2.9 mph S4.7 kmh S 8.1 mph13.0 kmh 30.37 in1028.4 mb 0.00 in0.0 mm 0.00 in0.0 mm 0.00 in0.0 mm
02:58 PM 62.8°F17.1°C 42.8°F6.0°C 48% 2.0 mph SSW3.2 kmh SSW 6.0 mph9.7 kmh 30.37 in1028.4 mb 0.00 in0.0 mm 0.00 in0.0 mm 0.00 in0.0 mm
03:08 PM 61.3°F16.3°C 42.1°F5.6°C 49% 4.0 mph SSE6.4 kmh SSE 10.1 mph16.3 kmh 30.37 in1028.4 mb 0.00 in0.0 mm 0.00 in0.0 mm 0.00 in0.0 mm
03:18 PM 61.0°F16.1°C 42.8°F6.0°C 51% 4.0 mph SSE6.4 kmh SSE 10.0 mph16.1 kmh 30.36 in1028.1 mb 0.00 in0.0 mm 0.00 in0.0 mm 0.00 in0.0 mm
03:28 PM 61.3°F16.3°C 42.6°F5.9°C 50% 4.0 mph SW6.4 kmh SW 10.1 mph16.3 kmh 30.36 in1028.1 mb 0.00 in0.0 mm 0.00 in0.0 mm 0.00 in0.0 mm
03:38 PM 61.3°F16.3°C 41.5°F5.3°C 48% 4.0 mph S6.4 kmh S 10.1 mph16.3 kmh 30.35 in1027.8 mb 0.00 in0.0 mm 0.00 in0.0 mm 0.00 in0.0 mm
03:48 PM 62.1°F16.7°C 42.1°F5.6°C 48% 2.9 mph SW4.7 kmh SW 8.1 mph13.0 kmh 30.35 in1027.8 mb 0.00 in0.0 mm 0.00 in0.0 mm 0.00 in0.0 mm
03:58 PM 61.2°F16.2°C 41.9°F5.5°C 49% 4.0 mph S6.4 kmh S 11.0 mph17.7 kmh 30.35 in1027.8 mb 0.00 in0.0 mm 0.00 in0.0 mm 0.00 in0.0 mm
04:08 PM 60.3°F15.7°C 41.0°F5.0°C 49% 2.9 mph SSW4.7 kmh SSW 8.9 mph14.3 kmh 30.34 in1027.4 mb 0.00 in0.0 mm 0.00 in0.0 mm 0.00 in0.0 mm
04:18 PM 60.3°F15.7°C 41.0°F5.0°C 49% 2.9 mph S4.7 kmh S 8.0 mph12.9 kmh 30.34 in1027.4 mb 0.00 in0.0 mm 0.00 in0.0 mm 0.00 in0.0 mm
04:28 PM 61.3°F16.3°C 40.5°F4.7°C 46% 2.0 mph S3.2 kmh S 6.9 mph11.1 kmh 30.34 in1027.4 mb 0.00 in0.0 mm 0.00 in0.0 mm 0.00 in0.0 mm
04:38 PM 61.5°F16.4°C 40.5°F4.7°C 46% 2.0 mph S3.2 kmh S 8.1 mph13.0 kmh 30.34 in1027.4 mb 0.00 in0.0 mm 0.00 in0.0 mm 0.00 in0.0 mm
04:48 PM 60.4°F15.8°C 39.6°F4.2°C 46% 4.0 mph S6.4 kmh S 10.0 mph16.1 kmh 30.34 in1027.4 mb 0.00 in0.0 mm 0.00 in0.0 mm 0.00 in0.0 mm
04:58 PM 61.2°F16.2°C 40.8°F4.9°C 47% 2.0 mph WSW3.2 kmh WSW 7.0 mph11.3 kmh 30.34 in1027.4 mb 0.00 in0.0 mm 0.00 in0.0 mm 0.00 in0.0 mm
05:08 PM 60.4°F15.8°C 40.1°F4.5°C 47% 2.9 mph S4.7 kmh S 8.1 mph13.0 kmh 30.34 in1027.4 mb 0.00 in0.0 mm 0.00 in0.0 mm 0.00 in0.0 mm
05:18 PM 60.1°F15.6°C 39.2°F4.0°C 46% 2.0 mph SW3.2 kmh SW 8.9 mph14.3 kmh 30.34 in1027.4 mb 0.00 in0.0 mm 0.00 in0.0 mm 0.00 in0.0 mm
05:28 PM 58.8°F14.9°C 37.6°F3.1°C 45% 2.9 mph SW4.7 kmh SW 8.1 mph13.0 kmh 30.34 in1027.4 mb 0.00 in0.0 mm 0.00 in0.0 mm 0.00 in0.0 mm
05:38 PM 57.9°F14.4°C 36.7°F2.6°C 45% 2.0 mph SW3.2 kmh SW 6.0 mph9.7 kmh 30.34 in1027.4 mb 0.00 in0.0 mm 0.00 in0.0 mm 0.00 in0.0 mm
05:48 PM 57.7°F14.3°C 37.6°F3.1°C 47% 2.0 mph SSW3.2 kmh SSW 6.0 mph9.7 kmh 30.34 in1027.4 mb 0.00 in0.0 mm 0.00 in0.0 mm 0.00 in0.0 mm
05:58 PM 57.0°F13.9°C 38.1°F3.4°C 49% 0.9 mph SW1.4 kmh SW 6.0 mph9.7 kmh 30.34 in1027.4 mb 0.00 in0.0 mm 0.00 in0.0 mm 0.00 in0.0 mm
06:08 PM 56.1°F13.4°C 37.8°F3.2°C 50% 2.0 mph SSE3.2 kmh SSE 7.0 mph11.3 kmh 30.33 in1027.1 mb 0.00 in0.0 mm 0.00 in0.0 mm 0.00 in0.0 mm
06:18 PM 55.6°F13.1°C 38.7°F3.7°C 53% 2.0 mph SW3.2 kmh SW 6.0 mph9.7 kmh 30.33 in1027.1 mb 0.00 in0.0 mm 0.00 in0.0 mm 0.00 in0.0 mm
06:28 PM 55.4°F13.0°C 39.6°F4.2°C 55% 0.9 mph SW1.4 kmh SW 4.9 mph7.9 kmh 30.32 in1026.8 mb 0.00 in0.0 mm 0.00 in0.0 mm 0.00 in0.0 mm
06:38 PM 55.0°F12.8°C 39.6°F4.2°C 56% 0.9 mph S1.4 kmh S 4.0 mph6.4 kmh 30.32 in1026.8 mb 0.00 in0.0 mm 0.00 in0.0 mm 0.00 in0.0 mm
06:48 PM 54.7°F12.6°C 39.7°F4.3°C 57% Calm Calm 2.9 mph4.7 kmh 30.32 in1026.8 mb 0.00 in0.0 mm 0.00 in0.0 mm 0.00 in0.0 mm
06:58 PM 54.1°F12.3°C 40.6°F4.8°C 60% 0.9 mph S1.4 kmh S 2.0 mph3.2 kmh 30.31 in1026.4 mb 0.00 in0.0 mm 0.00 in0.0 mm 0.00 in0.0 mm
07:08 PM 53.8°F12.1°C 41.5°F5.3°C 63% Calm Calm 3.0 mph4.8 kmh 30.31 in1026.4 mb 0.00 in0.0 mm 0.00 in0.0 mm 0.00 in0.0 mm
07:18 PM 53.2°F11.8°C 41.7°F5.4°C 65% Calm Calm 3.0 mph4.8 kmh 30.31 in1026.4 mb 0.00 in0.0 mm 0.00 in0.0 mm 0.00 in0.0 mm
07:28 PM 52.9°F11.6°C 41.9°F5.5°C 66% Calm Calm 2.0 mph3.2 kmh 30.31 in1026.4 mb 0.00 in0.0 mm 0.00 in0.0 mm 0.00 in0.0 mm
07:38 PM 52.5°F11.4°C 42.3°F5.7°C 68% 0.9 mph SSW1.4 kmh SSW 4.0 mph6.4 kmh 30.31 in1026.4 mb 0.00 in0.0 mm 0.00 in0.0 mm 0.00 in0.0 mm
07:48 PM 52.2°F11.2°C 42.6°F5.9°C 70% 0.9 mph SSW1.4 kmh SSW 2.9 mph4.7 kmh 30.32 in1026.8 mb 0.00 in0.0 mm 0.00 in0.0 mm 0.00 in0.0 mm
07:58 PM 52.0°F11.1°C 42.8°F6.0°C 71% 0.9 mph SSW1.4 kmh SSW 4.0 mph6.4 kmh 30.32 in1026.8 mb 0.00 in0.0 mm 0.00 in0.0 mm 0.00 in0.0 mm
08:08 PM 51.8°F11.0°C 43.0°F6.1°C 72% 0.9 mph S1.4 kmh S 2.9 mph4.7 kmh 30.32 in1026.8 mb 0.00 in0.0 mm 0.00 in0.0 mm 0.00 in0.0 mm
08:18 PM 51.6°F10.9°C 43.0°F6.1°C 72% 0.9 mph S1.4 kmh S 4.0 mph6.4 kmh 30.32 in1026.8 mb 0.00 in0.0 mm 0.00 in0.0 mm 0.00 in0.0 mm
08:28 PM 51.3°F10.7°C 43.0°F6.1°C 73% 0.9 mph S1.4 kmh S 4.0 mph6.4 kmh 30.33 in1027.1 mb 0.00 in0.0 mm 0.00 in0.0 mm 0.00 in0.0 mm
08:38 PM 51.1°F10.6°C 42.8°F6.0°C 73% 2.0 mph SW3.2 kmh SW 4.9 mph7.9 kmh 30.33 in1027.1 mb 0.00 in0.0 mm 0.00 in0.0 mm 0.00 in0.0 mm
08:48 PM 50.9°F10.5°C 42.6°F5.9°C 73% 0.9 mph S1.4 kmh S 4.0 mph6.4 kmh 30.33 in1027.1 mb 0.00 in0.0 mm 0.00 in0.0 mm 0.00 in0.0 mm
08:58 PM 50.7°F10.4°C 42.4°F5.8°C 73% 0.9 mph SSW1.4 kmh SSW 4.0 mph6.4 kmh 30.33 in1027.1 mb 0.00 in0.0 mm 0.00 in0.0 mm 0.00 in0.0 mm
09:08 PM 50.5°F10.3°C 42.3°F5.7°C 73% 0.9 mph SW1.4 kmh SW 2.9 mph4.7 kmh 30.33 in1027.1 mb 0.00 in0.0 mm 0.00 in0.0 mm 0.00 in0.0 mm
09:18 PM 50.4°F10.2°C 42.1°F5.6°C 73% Calm Calm 2.0 mph3.2 kmh 30.33 in1027.1 mb 0.00 in0.0 mm 0.00 in0.0 mm 0.00 in0.0 mm
09:28 PM 50.2°F10.1°C 41.9°F5.5°C 73% Calm Calm 2.0 mph3.2 kmh 30.32 in1026.8 mb 0.00 in0.0 mm 0.00 in0.0 mm 0.00 in0.0 mm
09:38 PM 50.2°F10.1°C 41.5°F5.3°C 72% Calm Calm 0.9 mph1.4 kmh 30.32 in1026.8 mb 0.00 in0.0 mm 0.00 in0.0 mm 0.00 in0.0 mm
09:48 PM 49.8°F9.9°C 40.8°F4.9°C 71% Calm Calm 0.9 mph1.4 kmh 30.32 in1026.8 mb 0.00 in0.0 mm 0.00 in0.0 mm 0.00 in0.0 mm
09:58 PM 49.8°F9.9°C 40.8°F4.9°C 71% Calm Calm 0.9 mph1.4 kmh 30.32 in1026.8 mb 0.00 in0.0 mm 0.00 in0.0 mm 0.00 in0.0 mm
10:08 PM 49.6°F9.8°C 40.3°F4.6°C 70% Calm Calm 0.9 mph1.4 kmh 30.31 in1026.4 mb 0.00 in0.0 mm 0.00 in0.0 mm 0.00 in0.0 mm
10:18 PM 49.6°F9.8°C 39.9°F4.4°C 69% Calm Calm 0.9 mph1.4 kmh 30.31 in1026.4 mb 0.00 in0.0 mm 0.00 in0.0 mm 0.00 in0.0 mm
10:28 PM 49.6°F9.8°C 39.6°F4.2°C 68% Calm Calm 0.9 mph1.4 kmh 30.31 in1026.4 mb 0.00 in0.0 mm 0.00 in0.0 mm 0.00 in0.0 mm
10:38 PM 49.3°F9.6°C 39.2°F4.0°C 68% Calm Calm -- 30.31 in1026.4 mb 0.00 in0.0 mm 0.00 in0.0 mm 0.00 in0.0 mm
10:48 PM 49.5°F9.7°C 39.4°F4.1°C 68% Calm Calm -- 30.30 in1026.1 mb 0.00 in0.0 mm 0.00 in0.0 mm 0.00 in0.0 mm
10:58 PM 49.6°F9.8°C 39.2°F4.0°C 67% Calm Calm 1.0 mph1.6 kmh 30.30 in1026.1 mb 0.00 in0.0 mm 0.00 in0.0 mm 0.00 in0.0 mm
11:08 PM 49.8°F9.9°C 38.1°F3.4°C 64% Calm Calm -- 30.30 in1026.1 mb 0.00 in0.0 mm 0.00 in0.0 mm 0.00 in0.0 mm
11:18 PM 50.0°F10.0°C 37.6°F3.1°C 62% Calm Calm -- 30.29 in1025.7 mb 0.00 in0.0 mm 0.00 in0.0 mm 0.00 in0.0 mm
11:28 PM 50.2°F10.1°C 37.2°F2.9°C 61% Calm Calm -- 30.29 in1025.7 mb 0.00 in0.0 mm 0.00 in0.0 mm 0.00 in0.0 mm
11:38 PM 50.4°F10.2°C 37.4°F3.0°C 61% Calm Calm -- 30.29 in1025.7 mb 0.00 in0.0 mm 0.00 in0.0 mm 0.00 in0.0 mm
11:48 PM 50.4°F10.2°C 38.3°F3.5°C 63% Calm Calm -- 30.29 in1025.7 mb 0.00 in0.0 mm 0.00 in0.0 mm 0.00 in0.0 mm
11:58 PM 50.2°F10.1°C 38.5°F3.6°C 64% Calm Calm -- 30.29 in1025.7 mb 0.00 in0.0 mm 0.00 in0.0 mm 0.00 in0.0 mm